< < Back
Terminal Aerodrome Forecast


Current Version              Previous Versions:   1  2  3  4  5  6  7  8  9  

Terminal Aerodrome Forecast

112
FTUS42 KMLB 231400 AAA
TAFMCO
TAF AMD
KMCO 231459Z 2315/2412 29008KT P6SM FEW030
     FM232300 14006KT P6SM SCT040
     FM240200 VRB03KT P6SM SKC=

Latest METAR

764
SAUS70 KWBC 232000 RRF
MTRMCO
METAR KMCO 231953Z 00000KT 10SM FEW050 29/14 A2988 RMK AO2 SLP117
T02940144


USA.gov is the U.S. government's official web portal to all federal, state and local government web resources and services.